createdAt,value
2018-12-15T00:00:11.088Z,61.25
2018-12-15T00:00:45.674Z,58.85
2018-12-15T00:01:20.328Z,62.38
2018-12-15T00:01:54.907Z,57.80
2018-12-15T00:02:29.648Z,56.25
2018-12-15T00:03:04.243Z,57.95
2018-12-15T00:03:38.823Z,64.10
2018-12-15T00:04:13.423Z,58.15
2018-12-15T00:04:48.132Z,53.83
2018-12-15T00:05:22.785Z,56.37
2018-12-15T00:05:57.464Z,51.35
2018-12-15T00:06:32.003Z,53.30
2018-12-15T00:07:06.564Z,56.80
2018-12-15T00:07:41.232Z,54.38
2018-12-15T00:08:15.727Z,54.65
2018-12-15T00:08:50.584Z,55.95
2018-12-15T00:09:25.164Z,58.73
2018-12-15T00:09:59.783Z,61.95
2018-12-15T00:10:34.285Z,61.85
2018-12-15T00:11:08.803Z,57.95
2018-12-15T00:11:43.444Z,58.38
2018-12-15T00:12:18.024Z,58.68
2018-12-15T00:12:52.652Z,56.10
2018-12-15T00:13:27.164Z,56.48
2018-12-15T00:14:01.724Z,54.70
2018-12-15T00:14:36.465Z,52.67
2018-12-15T00:15:11.324Z,62.80
2018-12-15T00:15:45.886Z,58.98
2018-12-15T00:16:20.504Z,54.73
2018-12-15T00:16:55.011Z,56.00
2018-12-15T00:17:29.603Z,50.45
2018-12-15T00:18:04.164Z,53.30
2018-12-15T00:18:38.926Z,52.78
2018-12-15T00:19:13.544Z,56.00
2018-12-15T00:19:48.143Z,62.95
2018-12-15T00:20:22.784Z,56.65
2018-12-15T00:20:57.264Z,61.13
2018-12-15T00:21:31.864Z,64.60
2018-12-15T00:22:06.425Z,53.50
2018-12-15T00:22:40.865Z,56.35
2018-12-15T00:23:15.404Z,52.35
2018-12-15T00:23:50.046Z,53.85
2018-12-15T00:24:24.804Z,52.43
2018-12-15T00:24:59.492Z,55.63
2018-12-15T00:25:33.944Z,51.28
2018-12-15T00:26:08.583Z,52.33
2018-12-15T00:26:43.087Z,50.63
2018-12-15T00:27:17.683Z,49.95
2018-12-15T00:27:52.244Z,54.90
2018-12-15T00:28:26.763Z,50.20
2018-12-15T00:29:01.363Z,52.00
2018-12-15T00:29:35.988Z,50.43
2018-12-15T00:30:10.843Z,55.50
2018-12-15T00:30:45.446Z,52.78
2018-12-15T00:31:20.044Z,50.08
2018-12-15T00:31:54.763Z,49.33
2018-12-15T00:32:29.484Z,53.28
2018-12-15T00:33:04.087Z,52.50
2018-12-15T00:33:38.683Z,51.02
2018-12-15T00:34:13.263Z,48.92
2018-12-15T00:34:47.903Z,47.80
2018-12-15T00:35:22.464Z,47.30
2018-12-15T00:35:57.003Z,48.00
2018-12-15T00:36:31.563Z,46.20
2018-12-15T00:37:06.184Z,49.25
2018-12-15T00:37:40.663Z,48.00
2018-12-15T00:38:15.424Z,50.03
2018-12-15T00:38:49.943Z,49.85
2018-12-15T00:39:24.525Z,48.52
2018-12-15T00:39:59.172Z,52.88
2018-12-15T00:40:33.763Z,50.43
2018-12-15T00:41:08.363Z,58.10
2018-12-15T00:41:42.884Z,51.58
2018-12-15T00:42:17.324Z,44.15
2018-12-15T00:42:51.924Z,47.20
2018-12-15T00:43:26.424Z,44.80
2018-12-15T00:44:00.883Z,46.58
2018-12-15T00:44:35.443Z,43.80
2018-12-15T00:45:10.064Z,48.60
2018-12-15T00:45:44.646Z,52.83
2018-12-15T00:46:19.263Z,48.80
2018-12-15T00:46:53.784Z,50.23
2018-12-15T00:47:28.364Z,51.65
2018-12-15T00:48:02.895Z,46.68
2018-12-15T00:48:37.424Z,48.15
2018-12-15T00:49:12.001Z,47.50
2018-12-15T00:49:46.546Z,51.25
2018-12-15T00:50:20.904Z,44.23
2018-12-15T00:50:55.604Z,45.55
2018-12-15T00:51:30.144Z,46.88
2018-12-15T00:52:04.644Z,49.10
2018-12-15T00:52:39.344Z,55.78
2018-12-15T00:53:13.884Z,47.27
2018-12-15T00:53:48.464Z,54.03
2018-12-15T00:54:23.103Z,45.92
2018-12-15T00:54:57.705Z,47.17
2018-12-15T00:55:32.264Z,45.03
2018-12-15T00:56:07.024Z,48.63
2018-12-15T00:56:41.844Z,49.55
2018-12-15T00:57:16.426Z,41.05
2018-12-15T00:57:51.164Z,45.98
2018-12-15T00:58:25.608Z,46.75
2018-12-15T00:59:00.204Z,42.65
2018-12-15T00:59:34.945Z,40.88
2018-12-15T01:00:09.724Z,39.63
2018-12-15T01:00:44.424Z,46.10
2018-12-15T01:01:19.025Z,39.75
2018-12-15T01:01:53.545Z,42.03
2018-12-15T01:02:28.184Z,44.40
2018-12-15T01:03:02.804Z,43.02
2018-12-15T01:03:37.385Z,43.28
2018-12-15T01:04:11.987Z,46.55
2018-12-15T01:04:46.606Z,42.75
2018-12-15T01:05:21.153Z,42.20
2018-12-15T01:05:55.765Z,40.05
2018-12-15T01:06:30.324Z,42.33
2018-12-15T01:07:04.904Z,41.95
2018-12-15T01:07:39.504Z,37.98
2018-12-15T01:08:13.984Z,37.15
2018-12-15T01:08:48.585Z,40.63
2018-12-15T01:09:23.544Z,37.50
2018-12-15T01:09:58.144Z,36.13
2018-12-15T01:10:32.727Z,34.75
2018-12-15T01:11:07.244Z,38.65
2018-12-15T01:11:41.824Z,38.67
2018-12-15T01:12:16.392Z,35.08
2018-12-15T01:12:50.965Z,39.23
2018-12-15T01:13:25.525Z,38.67
2018-12-15T01:14:00.104Z,40.65
2018-12-15T01:14:34.684Z,36.15
2018-12-15T01:15:09.204Z,37.30
2018-12-15T01:15:45.564Z,37.75
2018-12-15T01:16:20.273Z,33.60
2018-12-15T01:16:54.792Z,38.95
2018-12-15T01:17:29.405Z,34.65
2018-12-15T01:18:03.945Z,31.93
2018-12-15T01:18:38.586Z,33.58
2018-12-15T01:19:13.124Z,34.27
2018-12-15T01:19:47.725Z,32.13
2018-12-15T01:20:22.305Z,35.63
2018-12-15T01:20:56.886Z,36.70
2018-12-15T01:21:31.565Z,30.08
2018-12-15T01:22:06.086Z,24.95
2018-12-15T01:22:40.605Z,34.40
2018-12-15T01:23:15.185Z,31.90
2018-12-15T01:23:49.853Z,35.00
2018-12-15T01:24:24.496Z,35.92
2018-12-15T01:24:59.167Z,33.13
2018-12-15T01:25:33.665Z,33.75
2018-12-15T01:26:08.225Z,32.60
2018-12-15T01:26:42.865Z,35.00
2018-12-15T01:27:17.464Z,32.30
2018-12-15T01:27:52.006Z,31.07
2018-12-15T01:28:26.535Z,29.80
2018-12-15T01:29:01.107Z,32.65
2018-12-15T01:29:35.725Z,29.48
2018-12-15T01:30:10.305Z,31.02
2018-12-15T01:30:44.826Z,30.52
2018-12-15T01:31:19.308Z,31.87
2018-12-15T01:31:54.205Z,33.40
2018-12-15T01:32:28.804Z,35.50
2018-12-15T01:33:03.365Z,30.23
2018-12-15T01:33:37.904Z,30.45
2018-12-15T01:34:12.385Z,29.67
2018-12-15T01:34:47.005Z,34.33
2018-12-15T01:35:21.545Z,30.40
2018-12-15T01:35:56.125Z,32.50
2018-12-15T01:36:30.726Z,32.38
2018-12-15T01:37:05.364Z,31.48
2018-12-15T01:37:39.945Z,34.00
2018-12-15T01:38:14.506Z,29.32
2018-12-15T01:38:49.065Z,30.23
2018-12-15T01:39:23.705Z,28.67
2018-12-15T01:39:58.293Z,28.47
2018-12-15T01:40:32.826Z,28.83
2018-12-15T01:41:07.445Z,26.52
2018-12-15T01:41:42.025Z,30.27
2018-12-15T01:42:16.671Z,28.80
2018-12-15T01:42:51.125Z,28.23
2018-12-15T01:43:25.845Z,28.27
2018-12-15T01:44:00.404Z,31.62
2018-12-15T01:44:35.005Z,28.92
2018-12-15T01:45:09.545Z,29.42
2018-12-15T01:45:44.065Z,29.00
2018-12-15T01:46:18.667Z,27.52
2018-12-15T01:46:53.245Z,33.33
2018-12-15T01:47:28.005Z,28.55
2018-12-15T01:48:02.564Z,29.10
2018-12-15T01:48:37.153Z,28.17
2018-12-15T01:49:11.705Z,29.02
2018-12-15T01:49:46.306Z,28.87
2018-12-15T01:50:20.885Z,28.65
2018-12-15T01:50:55.386Z,26.15
2018-12-15T01:51:30.005Z,29.30
2018-12-15T01:52:04.545Z,28.90
2018-12-15T01:52:39.145Z,30.75
2018-12-15T01:53:13.785Z,30.32
2018-12-15T01:53:48.486Z,29.20
2018-12-15T01:54:23.066Z,28.05
2018-12-15T01:54:57.725Z,29.02
2018-12-15T01:55:32.365Z,27.65
2018-12-15T01:56:07.005Z,29.37
2018-12-15T01:56:41.545Z,28.77
2018-12-15T01:57:16.226Z,27.62
2018-12-15T01:57:50.924Z,30.37
2018-12-15T01:58:25.485Z,27.75
2018-12-15T01:59:00.085Z,27.05
2018-12-15T01:59:34.605Z,32.17
2018-12-15T02:00:09.609Z,31.23
2018-12-15T02:00:44.265Z,28.92
2018-12-15T02:01:18.845Z,31.50
2018-12-15T02:01:53.445Z,32.60
2018-12-15T02:02:28.171Z,25.80
2018-12-15T02:03:02.746Z,26.65
2018-12-15T02:03:37.465Z,28.15
2018-12-15T02:04:12.085Z,28.02
2018-12-15T02:04:46.585Z,25.85
2018-12-15T02:05:21.185Z,30.70
2018-12-15T02:05:55.727Z,28.75
2018-12-15T02:06:30.246Z,28.55
2018-12-15T02:07:04.865Z,31.42
2018-12-15T02:07:39.465Z,29.25
2018-12-15T02:08:14.026Z,27.87
2018-12-15T02:08:48.665Z,29.75
2018-12-15T02:09:23.166Z,29.45
2018-12-15T02:09:57.906Z,29.57
2018-12-15T02:10:32.405Z,34.08
2018-12-15T02:11:06.965Z,27.85
2018-12-15T02:11:41.573Z,27.60
2018-12-15T02:12:16.246Z,26.97
2018-12-15T02:12:50.905Z,31.65
2018-12-15T02:13:25.605Z,28.20
2018-12-15T02:14:00.685Z,29.90
2018-12-15T02:14:35.265Z,30.65
2018-12-15T02:15:09.945Z,29.25
2018-12-15T02:15:44.805Z,27.52
2018-12-15T02:16:19.326Z,27.58
2018-12-15T02:16:53.865Z,31.25
2018-12-15T02:17:33.655Z,30.52
2018-12-15T02:18:05.085Z,30.90
2018-12-15T02:18:39.765Z,28.23
2018-12-15T02:19:14.428Z,28.05
2018-12-15T02:19:49.245Z,28.80
2018-12-15T02:20:23.705Z,28.77
2018-12-15T02:20:58.465Z,28.15
2018-12-15T02:21:33.006Z,27.77
2018-12-15T02:22:07.685Z,28.52
2018-12-15T02:22:42.345Z,29.82
2018-12-15T02:23:16.806Z,29.95
2018-12-15T02:23:51.652Z,27.70
2018-12-15T02:24:26.165Z,28.45
2018-12-15T02:25:00.746Z,28.95
2018-12-15T02:25:35.285Z,28.83
2018-12-15T02:26:09.845Z,26.80
2018-12-15T02:26:44.445Z,28.62
2018-12-15T02:27:19.045Z,28.85
2018-12-15T02:27:53.873Z,31.40
2018-12-15T02:28:28.445Z,26.68
2018-12-15T02:29:02.965Z,29.00
2018-12-15T02:29:37.525Z,31.65
2018-12-15T02:30:12.067Z,28.40
2018-12-15T02:30:47.700Z,27.65
2018-12-15T02:31:24.065Z,26.73
2018-12-15T02:31:58.567Z,28.87
2018-12-15T02:32:33.245Z,26.95
2018-12-15T02:33:07.747Z,29.95
2018-12-15T02:33:42.265Z,31.65
2018-12-15T02:34:17.047Z,31.57
2018-12-15T02:34:51.725Z,29.85
2018-12-15T02:35:26.285Z,31.00
2018-12-15T02:36:00.925Z,29.45
2018-12-15T02:36:35.446Z,29.18
2018-12-15T02:37:10.027Z,33.92
2018-12-15T02:37:44.565Z,28.57
2018-12-15T02:38:19.246Z,30.97
2018-12-15T02:38:53.945Z,35.25
2018-12-15T02:39:28.585Z,36.68
2018-12-15T02:40:03.327Z,36.33
2018-12-15T02:40:38.137Z,34.35
2018-12-15T02:41:12.653Z,30.27
2018-12-15T02:41:47.586Z,35.17
2018-12-15T02:42:22.313Z,33.63
2018-12-15T02:42:57.099Z,34.13
2018-12-15T02:43:31.832Z,29.95
2018-12-15T02:44:06.435Z,25.05
2018-12-15T02:44:41.132Z,28.20
2018-12-15T02:45:15.614Z,28.20
2018-12-15T02:45:50.242Z,24.40
2018-12-15T02:46:24.793Z,27.98
2018-12-15T02:46:59.353Z,28.87
2018-12-15T02:47:41.239Z,29.20
2018-12-15T02:48:10.594Z,25.75
2018-12-15T02:48:45.275Z,23.85
2018-12-15T02:49:20.053Z,27.82
2018-12-15T02:49:54.798Z,25.08
2018-12-15T02:50:29.588Z,24.52
2018-12-15T02:51:04.213Z,27.13
2018-12-15T02:51:39.032Z,27.48
2018-12-15T02:52:13.592Z,28.32
2018-12-15T02:52:48.254Z,27.93
2018-12-15T02:53:22.833Z,27.50
2018-12-15T02:53:57.395Z,28.35
2018-12-15T02:54:32.173Z,26.23
2018-12-15T02:55:06.892Z,28.35
2018-12-15T02:55:41.493Z,26.95
2018-12-15T02:56:16.040Z,25.55
2018-12-15T02:56:50.613Z,26.37
2018-12-15T02:57:25.233Z,28.83
2018-12-15T02:57:59.935Z,27.15
2018-12-15T02:58:34.653Z,28.85
2018-12-15T02:59:09.212Z,29.02
2018-12-15T02:59:43.812Z,29.42
2018-12-15T03:00:18.592Z,27.05
2018-12-15T03:00:53.096Z,25.23
2018-12-15T03:01:27.832Z,29.30
2018-12-15T03:02:02.433Z,27.30
2018-12-15T03:02:37.032Z,27.05
2018-12-15T03:03:11.653Z,27.17
2018-12-15T03:03:46.394Z,27.93
2018-12-15T03:04:21.132Z,26.37
2018-12-15T03:04:56.014Z,30.43
2018-12-15T03:05:30.632Z,29.63
2018-12-15T03:06:05.213Z,28.20
2018-12-15T03:06:40.012Z,26.20
2018-12-15T03:07:14.753Z,25.02
2018-12-15T03:07:49.313Z,26.77
2018-12-15T03:08:23.898Z,25.77
2018-12-15T03:08:58.792Z,27.93
2018-12-15T03:09:33.355Z,28.12
2018-12-15T03:10:08.373Z,26.02
2018-12-15T03:10:45.972Z,28.17
2018-12-15T03:11:20.612Z,26.62
2018-12-15T03:11:55.153Z,28.20
2018-12-15T03:12:29.572Z,29.07
2018-12-15T03:13:04.192Z,25.57
2018-12-15T03:13:38.713Z,24.55
2018-12-15T03:14:13.294Z,25.77
2018-12-15T03:14:47.793Z,25.92
2018-12-15T03:15:22.251Z,27.62
2018-12-15T03:15:57.006Z,29.67
2018-12-15T03:16:31.512Z,27.90
2018-12-15T03:17:07.232Z,26.95
2018-12-15T03:17:48.652Z,28.57
2018-12-15T03:18:18.492Z,27.40
2018-12-15T03:18:53.552Z,25.02
2018-12-15T03:19:28.132Z,27.10
2018-12-15T03:20:03.272Z,25.32
2018-12-15T03:20:37.972Z,29.00
2018-12-15T03:21:12.554Z,26.33
2018-12-15T03:21:47.152Z,23.83
2018-12-15T03:22:21.751Z,26.27
2018-12-15T03:22:56.353Z,27.77
2018-12-15T03:23:30.959Z,26.95
2018-12-15T03:24:05.432Z,26.02
2018-12-15T03:24:40.100Z,28.42
2018-12-15T03:25:14.652Z,28.95
2018-12-15T03:25:49.151Z,29.90
2018-12-15T03:26:23.832Z,28.77
2018-12-15T03:26:58.483Z,29.37
2018-12-15T03:27:33.118Z,30.12
2018-12-15T03:28:07.652Z,25.80
2018-12-15T03:28:42.335Z,25.90
2018-12-15T03:29:16.955Z,35.17
2018-12-15T03:29:51.492Z,29.12
2018-12-15T03:30:26.074Z,27.70
2018-12-15T03:31:00.713Z,29.45
2018-12-15T03:31:35.442Z,26.35
2018-12-15T03:32:10.035Z,26.23
2018-12-15T03:32:44.596Z,31.10
2018-12-15T03:33:19.131Z,29.50
2018-12-15T03:33:53.652Z,27.40
2018-12-15T03:34:28.332Z,25.55
2018-12-15T03:35:02.873Z,26.90
2018-12-15T03:35:37.452Z,28.05
2018-12-15T03:36:12.032Z,26.62
2018-12-15T03:36:46.757Z,26.37
2018-12-15T03:37:21.452Z,24.60
2018-12-15T03:37:56.091Z,27.55
2018-12-15T03:38:30.633Z,25.72
2018-12-15T03:39:06.180Z,26.80
2018-12-15T03:39:40.712Z,25.57
2018-12-15T03:40:15.315Z,26.37
2018-12-15T03:40:49.952Z,26.27
2018-12-15T03:41:24.692Z,23.50
2018-12-15T03:41:59.294Z,25.30
2018-12-15T03:42:33.912Z,27.00
2018-12-15T03:43:08.472Z,25.75
2018-12-15T03:43:43.052Z,24.23
2018-12-15T03:44:17.772Z,24.27
2018-12-15T03:44:52.292Z,24.52
2018-12-15T03:45:26.852Z,22.30
2018-12-15T03:46:01.396Z,25.52
2018-12-15T03:46:35.912Z,26.00
2018-12-15T03:47:10.594Z,26.55
2018-12-15T03:47:45.132Z,25.85
2018-12-15T03:48:19.573Z,26.10
2018-12-15T03:48:54.272Z,22.62
2018-12-15T03:49:28.972Z,24.27
2018-12-15T03:50:03.852Z,24.90
2018-12-15T03:50:38.496Z,26.33
2018-12-15T03:51:13.112Z,25.10
2018-12-15T03:51:47.693Z,29.25
2018-12-15T03:52:22.473Z,27.52
2018-12-15T03:52:57.033Z,27.52
2018-12-15T03:53:32.053Z,27.15
2018-12-15T03:54:06.633Z,28.07
2018-12-15T03:54:41.299Z,28.05
2018-12-15T03:55:15.912Z,23.35
2018-12-15T03:55:50.415Z,27.50
2018-12-15T03:56:25.032Z,26.62
2018-12-15T03:56:59.552Z,23.30
2018-12-15T03:57:34.334Z,23.32
2018-12-15T03:58:08.953Z,26.20
2018-12-15T03:58:43.453Z,28.65
2018-12-15T03:59:18.433Z,27.67
2018-12-15T03:59:53.154Z,26.57
2018-12-15T04:00:27.832Z,25.70
2018-12-15T04:01:02.497Z,29.80
2018-12-15T04:01:37.154Z,24.02
2018-12-15T04:02:11.713Z,26.10
2018-12-15T04:02:46.416Z,23.52
2018-12-15T04:03:21.112Z,26.15
2018-12-15T04:03:55.693Z,28.42
2018-12-15T04:04:30.992Z,26.05
2018-12-15T04:05:05.792Z,25.17
2018-12-15T04:05:40.412Z,27.32
2018-12-15T04:06:14.956Z,28.02
2018-12-15T04:06:49.432Z,29.75
2018-12-15T04:07:24.072Z,28.75
2018-12-15T04:07:58.653Z,32.30
2018-12-15T04:08:33.192Z,34.20
2018-12-15T04:09:08.113Z,30.25
2018-12-15T04:09:42.638Z,34.27
2018-12-15T04:10:17.214Z,25.88
2018-12-15T04:10:51.932Z,26.12
2018-12-15T04:11:26.652Z,29.55
2018-12-15T04:12:01.173Z,27.40
2018-12-15T04:12:35.633Z,25.57
2018-12-15T04:13:10.353Z,25.65
2018-12-15T04:13:44.932Z,24.72
2018-12-15T04:14:19.532Z,24.77
2018-12-15T04:14:54.345Z,26.68
2018-12-15T04:15:28.972Z,25.00
2018-12-15T04:16:03.593Z,24.72
2018-12-15T04:16:38.332Z,26.57
2018-12-15T04:17:12.993Z,25.23
2018-12-15T04:17:47.494Z,26.55
2018-12-15T04:18:22.152Z,24.43
2018-12-15T04:18:56.692Z,24.70
2018-12-15T04:19:31.393Z,27.80
2018-12-15T04:20:05.993Z,26.35
2018-12-15T04:20:40.613Z,20.92
2018-12-15T04:21:15.292Z,27.67
2018-12-15T04:21:50.033Z,25.48
2018-12-15T04:22:24.573Z,27.17
2018-12-15T04:22:59.094Z,24.77
2018-12-15T04:23:33.672Z,27.58
2018-12-15T04:24:08.212Z,25.15
2018-12-15T04:24:42.720Z,24.65
2018-12-15T04:25:17.293Z,25.05
2018-12-15T04:25:51.833Z,26.45
2018-12-15T04:26:26.414Z,24.10
2018-12-15T04:27:00.953Z,26.50
2018-12-15T04:27:35.433Z,28.45
2018-12-15T04:28:10.153Z,25.12
2018-12-15T04:28:44.793Z,25.32
2018-12-15T04:29:19.374Z,23.22
2018-12-15T04:29:53.953Z,25.57
2018-12-15T04:30:28.482Z,25.90
2018-12-15T04:31:03.115Z,29.20
2018-12-15T04:31:37.633Z,26.35
2018-12-15T04:32:12.333Z,24.60
2018-12-15T04:32:46.833Z,24.25
2018-12-15T04:33:21.312Z,26.07
2018-12-15T04:33:56.112Z,26.02
2018-12-15T04:34:30.633Z,25.68
2018-12-15T04:35:05.534Z,30.25
2018-12-15T04:35:40.093Z,26.30
2018-12-15T04:36:18.755Z,28.40
2018-12-15T04:36:53.313Z,26.97
2018-12-15T04:37:27.895Z,25.70
2018-12-15T04:38:02.639Z,25.10
2018-12-15T04:38:37.175Z,24.85
2018-12-15T04:39:11.693Z,24.52
2018-12-15T04:39:46.325Z,23.15
2018-12-15T04:40:21.104Z,23.55
2018-12-15T04:40:55.712Z,25.92
2018-12-15T04:41:30.332Z,23.73
2018-12-15T04:42:04.836Z,25.05
2018-12-15T04:42:39.472Z,27.58
2018-12-15T04:43:13.974Z,29.82
2018-12-15T04:43:48.688Z,26.20
2018-12-15T04:44:23.247Z,27.48
2018-12-15T04:44:57.769Z,25.48
2018-12-15T04:45:32.470Z,25.02
2018-12-15T04:46:07.036Z,24.95
2018-12-15T04:46:41.568Z,20.77
2018-12-15T04:47:16.529Z,27.93
2018-12-15T04:47:50.990Z,24.05
2018-12-15T04:48:25.669Z,28.52
2018-12-15T04:49:00.393Z,26.55
2018-12-15T04:49:35.068Z,25.68
2018-12-15T04:50:09.708Z,28.57
2018-12-15T04:50:44.287Z,27.85
2018-12-15T04:51:18.947Z,25.02
2018-12-15T04:51:53.527Z,26.60
2018-12-15T04:52:28.168Z,28.42
2018-12-15T04:53:02.648Z,24.02
2018-12-15T04:53:37.267Z,27.10
2018-12-15T04:54:11.787Z,25.27
2018-12-15T04:54:46.268Z,25.68
2018-12-15T04:55:20.868Z,24.70
2018-12-15T04:56:58.767Z,24.35
2018-12-15T04:57:33.507Z,26.87
2018-12-15T04:58:08.027Z,21.57
2018-12-15T04:58:42.529Z,25.05
2018-12-15T04:59:17.108Z,26.48
2018-12-15T04:59:51.850Z,27.62
2018-12-15T05:00:26.569Z,24.20
2018-12-15T05:01:01.147Z,22.87
2018-12-15T05:01:35.668Z,26.15
2018-12-15T05:02:10.257Z,25.82
2018-12-15T05:02:44.928Z,24.90
2018-12-15T05:03:19.487Z,23.02
2018-12-15T05:03:54.127Z,25.37
2018-12-15T05:04:28.607Z,26.25
2018-12-15T05:05:03.308Z,24.02
2018-12-15T05:05:37.768Z,25.65
2018-12-15T05:06:12.447Z,21.68
2018-12-15T05:06:46.967Z,24.18
2018-12-15T05:07:21.448Z,23.75
2018-12-15T05:07:56.007Z,26.37
2018-12-15T05:08:30.487Z,25.05
2018-12-15T05:09:06.429Z,27.02
2018-12-15T05:09:41.151Z,25.68
2018-12-15T05:10:15.708Z,23.27
2018-12-15T05:10:50.448Z,27.42
2018-12-15T05:11:25.009Z,25.55
2018-12-15T05:11:59.587Z,30.25
2018-12-15T05:12:34.107Z,22.55
2018-12-15T05:13:08.667Z,27.35
2018-12-15T05:13:43.227Z,26.35
2018-12-15T05:14:17.848Z,23.27
2018-12-15T05:14:52.327Z,27.02
2018-12-15T05:15:27.047Z,24.37
2018-12-15T05:16:01.549Z,22.65
2018-12-15T05:16:36.168Z,24.80
2018-12-15T05:17:10.688Z,27.30
2018-12-15T05:17:45.150Z,24.67
2018-12-15T05:18:19.727Z,23.15
2018-12-15T05:18:54.209Z,27.55
2018-12-15T05:19:28.909Z,26.00
2018-12-15T05:20:03.468Z,23.92
2018-12-15T05:20:38.067Z,26.80
2018-12-15T05:21:12.649Z,25.88
2018-12-15T05:21:47.189Z,25.32
2018-12-15T05:22:21.673Z,25.65
2018-12-15T05:22:56.268Z,23.65
2018-12-15T05:23:30.787Z,26.20
2018-12-15T05:24:05.368Z,26.42
2018-12-15T05:24:40.068Z,24.07
2018-12-15T05:25:14.748Z,29.00
2018-12-15T05:25:49.393Z,25.65
2018-12-15T05:26:23.927Z,25.12
2018-12-15T05:26:58.508Z,27.45
2018-12-15T05:27:33.128Z,26.45
2018-12-15T05:28:07.748Z,27.05
2018-12-15T05:28:42.307Z,25.30
2018-12-15T05:29:16.708Z,26.85
2018-12-15T05:29:51.408Z,25.40
2018-12-15T05:30:25.909Z,26.95
2018-12-15T05:31:00.688Z,23.52
2018-12-15T05:31:35.330Z,26.57
2018-12-15T05:32:09.867Z,25.10
2018-12-15T05:32:44.528Z,25.65
2018-12-15T05:33:19.309Z,28.92
2018-12-15T05:33:53.788Z,27.77
2018-12-15T05:34:28.428Z,27.22
2018-12-15T05:35:03.011Z,26.23
2018-12-15T05:35:37.648Z,25.88
2018-12-15T05:36:12.327Z,28.05
2018-12-15T05:36:46.848Z,27.25
2018-12-15T05:37:21.388Z,26.57
2018-12-15T05:37:56.148Z,27.58
2018-12-15T05:38:30.771Z,28.32
2018-12-15T05:39:06.728Z,26.62
2018-12-15T05:39:41.247Z,26.37
2018-12-15T05:40:15.851Z,25.95
2018-12-15T05:40:50.428Z,27.52
2018-12-15T05:41:25.088Z,23.38
2018-12-15T05:41:59.668Z,27.27
2018-12-15T05:42:34.208Z,24.30
2018-12-15T05:43:08.828Z,26.25
2018-12-15T05:43:43.407Z,25.88
2018-12-15T05:44:18.068Z,28.87
2018-12-15T05:44:52.548Z,26.87
2018-12-15T05:45:27.248Z,28.20
2018-12-15T05:46:01.749Z,26.55
2018-12-15T05:46:36.268Z,29.37
2018-12-15T05:47:10.788Z,26.20
2018-12-15T05:47:45.208Z,26.80
2018-12-15T05:48:25.227Z,25.48
2018-12-15T05:48:56.348Z,25.17
2018-12-15T05:49:30.948Z,27.32
2018-12-15T05:50:05.707Z,28.38
2018-12-15T05:50:40.268Z,27.00
2018-12-15T05:51:14.828Z,27.17
2018-12-15T05:51:49.428Z,24.95
2018-12-15T05:52:24.108Z,25.77
2018-12-15T05:52:58.613Z,27.30
2018-12-15T05:53:33.228Z,28.23
2018-12-15T05:54:07.769Z,28.35
2018-12-15T05:54:42.208Z,26.70
2018-12-15T05:55:16.909Z,27.27
2018-12-15T05:55:51.428Z,24.60
2018-12-15T05:56:26.008Z,26.12
2018-12-15T05:57:00.608Z,27.75
2018-12-15T05:57:35.068Z,21.20
2018-12-15T05:58:09.648Z,29.02
2018-12-15T05:58:44.148Z,24.75
2018-12-15T05:59:18.648Z,28.10
2018-12-15T05:59:53.568Z,29.77
2018-12-15T06:00:28.190Z,29.57
2018-12-15T06:01:02.769Z,29.35
2018-12-15T06:01:37.389Z,27.22
2018-12-15T06:02:14.018Z,26.68
2018-12-15T06:02:48.648Z,28.10
2018-12-15T06:03:23.368Z,29.82
2018-12-15T06:03:57.890Z,25.92
2018-12-15T06:04:32.488Z,30.12
2018-12-15T06:05:07.288Z,30.48
2018-12-15T06:05:41.908Z,28.02
2018-12-15T06:06:16.450Z,29.10
2018-12-15T06:06:50.989Z,28.67
2018-12-15T06:07:25.548Z,29.57
2018-12-15T06:08:00.489Z,30.20
2018-12-15T06:08:35.068Z,26.62
2018-12-15T06:09:09.588Z,25.92
2018-12-15T06:09:44.189Z,29.35
2018-12-15T06:10:18.708Z,28.23
2018-12-15T06:10:53.349Z,25.50
2018-12-15T06:11:27.928Z,28.23
2018-12-15T06:12:02.469Z,29.82
2018-12-15T06:12:37.248Z,33.67
2018-12-15T06:13:11.908Z,29.87
2018-12-15T06:13:46.308Z,29.40
2018-12-15T06:14:27.249Z,26.35
2018-12-15T06:15:01.728Z,28.60
2018-12-15T06:15:36.489Z,26.95
2018-12-15T06:16:11.068Z,24.37
2018-12-15T06:16:45.608Z,27.00
2018-12-15T06:17:20.228Z,27.25
2018-12-15T06:17:54.728Z,27.55
2018-12-15T06:18:31.727Z,26.87
2018-12-15T06:19:05.889Z,29.48
2018-12-15T06:19:40.468Z,26.00
2018-12-15T06:20:15.108Z,27.58
2018-12-15T06:20:49.729Z,26.73
2018-12-15T06:21:24.289Z,28.80
2018-12-15T06:21:58.828Z,27.50
2018-12-15T06:22:33.428Z,27.40
2018-12-15T06:23:08.048Z,28.73
2018-12-15T06:23:42.668Z,31.07
2018-12-15T06:24:17.369Z,26.85
2018-12-15T06:24:52.008Z,28.80
2018-12-15T06:25:26.568Z,27.65
2018-12-15T06:26:01.188Z,25.72
2018-12-15T06:26:35.909Z,24.95
2018-12-15T06:27:10.588Z,28.05
2018-12-15T06:27:45.168Z,24.77
2018-12-15T06:28:19.768Z,25.75
2018-12-15T06:28:54.277Z,26.02
2018-12-15T06:29:28.670Z,25.43
2018-12-15T06:30:03.268Z,24.52
2018-12-15T06:30:37.928Z,26.23
2018-12-15T06:31:12.390Z,24.45
2018-12-15T06:31:47.089Z,27.65
2018-12-15T06:32:21.588Z,23.05
2018-12-15T06:32:56.328Z,26.15
2018-12-15T06:33:30.888Z,26.68
2018-12-15T06:34:05.651Z,25.60
2018-12-15T06:34:40.268Z,25.77
2018-12-15T06:35:14.788Z,20.37
2018-12-15T06:35:49.468Z,26.68
2018-12-15T06:36:24.128Z,27.55
2018-12-15T06:36:58.728Z,24.00
2018-12-15T06:37:33.409Z,24.32
2018-12-15T06:38:08.028Z,22.27
2018-12-15T06:38:42.688Z,26.68
2018-12-15T06:39:17.068Z,23.95
2018-12-15T06:39:51.748Z,22.80
2018-12-15T06:40:26.211Z,23.90
2018-12-15T06:41:00.788Z,23.20
2018-12-15T06:41:35.288Z,24.02
2018-12-15T06:42:09.828Z,26.50
2018-12-15T06:42:44.588Z,23.98
2018-12-15T06:43:19.428Z,23.90
2018-12-15T06:43:54.208Z,23.60
2018-12-15T06:44:28.850Z,19.80
2018-12-15T06:45:03.668Z,20.77
2018-12-15T06:45:38.210Z,18.25
2018-12-15T06:46:12.808Z,23.62
2018-12-15T06:46:47.368Z,21.48
2018-12-15T06:47:21.968Z,27.75
2018-12-15T06:47:56.654Z,23.27
2018-12-15T06:48:31.208Z,22.50
2018-12-15T06:49:05.848Z,23.38
2018-12-15T06:49:40.428Z,24.70
2018-12-15T06:50:15.008Z,22.70
2018-12-15T06:50:49.609Z,24.85
2018-12-15T06:51:24.288Z,25.35
2018-12-15T06:51:58.832Z,23.98
2018-12-15T06:52:33.288Z,25.02
2018-12-15T06:53:08.090Z,25.90
2018-12-15T06:53:42.748Z,23.42
2018-12-15T06:54:17.368Z,24.30
2018-12-15T06:54:51.888Z,22.90
2018-12-15T06:55:26.409Z,23.40
2018-12-15T06:56:00.988Z,22.45
2018-12-15T06:56:35.488Z,25.85
2018-12-15T06:57:10.211Z,23.70
2018-12-15T06:57:44.752Z,22.02
2018-12-15T06:58:19.348Z,23.77
2018-12-15T06:58:53.908Z,25.37
2018-12-15T06:59:28.689Z,26.07
2018-12-15T07:00:03.308Z,27.62
2018-12-15T07:00:37.788Z,22.02
2018-12-15T07:01:12.388Z,21.75
2018-12-15T07:01:46.988Z,21.77
2018-12-15T07:02:21.647Z,21.52
2018-12-15T07:02:56.207Z,24.37
2018-12-15T07:03:30.928Z,22.10
2018-12-15T07:04:05.428Z,22.95
2018-12-15T07:04:40.048Z,19.20
2018-12-15T07:05:14.648Z,22.67
2018-12-15T07:05:49.368Z,19.17
2018-12-15T07:06:23.868Z,20.95
2018-12-15T07:06:58.508Z,20.97
2018-12-15T07:07:33.128Z,21.42
2018-12-15T07:08:07.567Z,20.40
2018-12-15T07:08:42.328Z,17.27
2018-12-15T07:09:16.887Z,22.77
2018-12-15T07:09:51.467Z,21.97
2018-12-15T07:10:26.108Z,19.32
2018-12-15T07:11:00.707Z,20.70
2018-12-15T07:11:35.230Z,22.13
2018-12-15T07:12:09.808Z,21.50
2018-12-15T07:12:44.528Z,26.25
2018-12-15T07:13:19.090Z,20.95
2018-12-15T07:13:53.668Z,21.80
2018-12-15T07:14:28.228Z,19.32
2018-12-15T07:15:02.768Z,23.47
2018-12-15T07:15:37.367Z,20.15
2018-12-15T07:16:11.908Z,17.30
2018-12-15T07:16:46.449Z,21.17
2018-12-15T07:17:21.188Z,20.27
2018-12-15T07:17:55.848Z,21.60
2018-12-15T07:18:30.387Z,19.20
2018-12-15T07:19:05.169Z,19.55
2018-12-15T07:19:39.768Z,21.45
2018-12-15T07:20:14.488Z,20.10
2018-12-15T07:20:49.107Z,20.00
2018-12-15T07:21:23.728Z,21.35
2018-12-15T07:21:58.407Z,16.77
2018-12-15T07:22:33.187Z,17.48
2018-12-15T07:23:07.647Z,19.50
2018-12-15T07:23:42.147Z,18.42
2018-12-15T07:24:16.807Z,21.27
2018-12-15T07:24:51.488Z,16.77
2018-12-15T07:25:26.188Z,18.42
2018-12-15T07:26:00.809Z,14.65
2018-12-15T07:26:35.389Z,17.17
2018-12-15T07:27:10.408Z,20.77